ADDS METAR Data

Data at: 1857 UTC 19 Sep 2017

METAR for:EGLF (Farnborough Arpt, --, UK)
Text:EGLF 191850Z 24003KT 9999 FEW042 10/09 Q1022
Temperature: 10.0°C ( 50°F)
Dewpoint: 9.0°C ( 48°F) [RH = 93%]
Pressure (altimeter):30.18 inches Hg (1022.0 mb)
Winds:from the WSW (240 degrees) at 3 MPH (3 knots; 1.5 m/s)
Visibility:6 or more sm (10+ km)
Ceiling:at least 12,000 feet AGL
Clouds: few clouds at 4200 feet AGL

TAF for:EGLF (Farnborough Arpt, --, UK) issued at 1658 UTC 19 Sep 2017
Text:TAF EGLF 191658Z 1918/1921 26004KT 9999 SCT035
Forecast period:1800 to 2100 UTC 19 September 2017
Forecast type:FROM: standard forecast or significant change
Winds:from the W (260 degrees) at 5 MPH (4 knots; 2.1 m/s)
Visibility:6 or more sm (10+ km)
Ceiling:at least 12,000 feet AGL
Clouds: scattered clouds at 3500 feet AGL

METAR for:EGUB (Benson(RAF), --, UK)
Text:EGUB 191750Z 15002KT 9999 FEW040 13/07 Q1021 BLU NOSIG
Temperature: 13.0°C ( 55°F)
Dewpoint: 7.0°C ( 45°F) [RH = 67%]
Pressure (altimeter):30.15 inches Hg (1021.0 mb)
Winds:from the SSE (150 degrees) at 2 MPH (2 knots; 1.0 m/s)
Visibility:6 or more sm (10+ km)
Ceiling:at least 12,000 feet AGL
Clouds: few clouds at 4000 feet AGL

TAF for:EGUB (Benson(RAF), --, UK) issued at 1638 UTC 19 Sep 2017
Text:TAF EGUB 191638Z 1918/1924 VRB03KT 9999 FEW040
Forecast period:1800 UTC 19 September 2017 to 0000 UTC 20 September 2017
Forecast type:FROM: standard forecast or significant change
Winds:variable direction winds at 3 MPH (3 knots; 1.5 m/s)
Visibility:6 or more sm (10+ km)
Ceiling:at least 12,000 feet AGL
Clouds: few clouds at 4000 feet AGL

METAR for:EGVO (Odiham(RAF), --, UK)
Text:EGVO 191750Z 15002KT 9999 FEW045 13/08 Q1021 BLU NOSIG
Temperature: 13.0°C ( 55°F)
Dewpoint: 8.0°C ( 46°F) [RH = 72%]
Pressure (altimeter):30.15 inches Hg (1021.0 mb)
Winds:from the SSE (150 degrees) at 2 MPH (2 knots; 1.0 m/s)
Visibility:6 or more sm (10+ km)
Ceiling:at least 12,000 feet AGL
Clouds: few clouds at 4500 feet AGL

TAF for:EGVO (Odiham(RAF), --, UK) issued at 1651 UTC 19 Sep 2017
Text:TAF EGVO 191651Z 1918/2006 30006KT 9999 SCT035
Forecast period:1800 UTC 19 September 2017 to 0600 UTC 20 September 2017
Forecast type:FROM: standard forecast or significant change
Winds:from the WNW (300 degrees) at 7 MPH (6 knots; 3.1 m/s)
Visibility:6 or more sm (10+ km)
Ceiling:at least 12,000 feet AGL
Clouds: scattered clouds at 3500 feet AGL
Text:PROB30 2003/2006 5000 BR
Forecast period:0300 to 0600 UTC 20 September 2017
Forecast type:PROBABLE: 30 percent likelihood of the following during this time
Visibility: 3 sm ( 5 km)
Clouds:missing
Weather:BR (mist)

METAR for:EGTK (Oxford Arpt, --, UK)
Text:EGTK 191850Z 22002KT CAVOK 12/08 Q1021
Temperature: 12.0°C ( 54°F)
Dewpoint: 8.0°C ( 46°F) [RH = 76%]
Pressure (altimeter):30.15 inches Hg (1021.0 mb)
Winds:from the SW (220 degrees) at 2 MPH (2 knots; 1.0 m/s)
Visibility:6 or more sm (10+ km)
Ceiling:ceiling and visibility are OK
Clouds:unknown

TAF for:EGTK (Oxford Arpt, --, UK) issued at 1657 UTC 19 Sep 2017
Text:TAF EGTK 191657Z 1918/1922 VRB03KT 9999 FEW030
Forecast period:1800 to 2200 UTC 19 September 2017
Forecast type:FROM: standard forecast or significant change
Winds:variable direction winds at 3 MPH (3 knots; 1.5 m/s)
Visibility:6 or more sm (10+ km)
Ceiling:at least 12,000 feet AGL
Clouds: few clouds at 3000 feet AGL

METAR for:EGHH (Bournemouth Intl, --, UK)
Text:EGHH 191850Z 25005KT 9999 FEW026 SCT036 12/09 Q1022
Temperature: 12.0°C ( 54°F)
Dewpoint: 9.0°C ( 48°F) [RH = 82%]
Pressure (altimeter):30.18 inches Hg (1022.0 mb)
Winds:from the WSW (250 degrees) at 6 MPH (5 knots; 2.6 m/s)
Visibility:6 or more sm (10+ km)
Ceiling:at least 12,000 feet AGL
Clouds: few clouds at 2600 feet AGL, scattered clouds at 3600 feet AGL

TAF for:EGHH (Bournemouth Intl, --, UK) issued at 1657 UTC 19 Sep 2017
Text:TAF EGHH 191657Z 1918/2003 26006KT 9999 FEW035
Forecast period:1800 UTC 19 September 2017 to 0300 UTC 20 September 2017
Forecast type:FROM: standard forecast or significant change
Winds:from the W (260 degrees) at 7 MPH (6 knots; 3.1 m/s)
Visibility:6 or more sm (10+ km)
Ceiling:at least 12,000 feet AGL
Clouds: few clouds at 3500 feet AGL

METAR for:
Text:No data found

TAF for:
Text:No data found